Terminal Aerodrome Forecast
Issued by NWS

Current Version | Previous Version | Text Only | Print | Product List | Glossary Off
Versions: 1 2 3 4 5 6 7 8 9 10 11 12 13 14 15 16 17 18 19 20 21 22 23 24 25

561
FTUS41 KPBZ 161115 AAC
TAFHLG
TAF AMD
KHLG 161115Z 1611/1706 VRB03KT 6SM -RA OVC050
     FM161200 VRB03KT 6SM -RA OVC010
     FM161600 31012G25KT 6SM -RASN OVC010
     FM162000 33013G23KT P6SM BKN035
     FM170000 33012KT P6SM BKN035=

USA.gov is the U.S. government's official web portal to all federal, state and local government web resources and services.